createdAt,value
2019-01-08T00:03:41.854Z,3.60
2019-01-08T00:08:26.480Z,3.60
2019-01-08T00:13:11.148Z,3.60
2019-01-08T00:17:55.862Z,3.60
2019-01-08T00:22:40.472Z,3.60
2019-01-08T00:27:25.084Z,3.70
2019-01-08T00:32:09.766Z,3.70
2019-01-08T00:36:54.488Z,3.70
2019-01-08T00:41:39.010Z,3.80
2019-01-08T00:46:23.676Z,3.80
2019-01-08T00:51:08.246Z,3.80
2019-01-08T00:55:52.923Z,3.90
2019-01-08T01:00:37.556Z,3.80
2019-01-08T01:05:22.086Z,3.80
2019-01-08T01:10:07.238Z,3.90
2019-01-08T01:14:51.828Z,3.80
2019-01-08T01:19:36.421Z,3.80
2019-01-08T01:24:21.077Z,3.70
2019-01-08T01:29:05.646Z,3.70
2019-01-08T01:33:50.268Z,3.60
2019-01-08T01:38:34.898Z,3.50
2019-01-08T01:43:19.652Z,3.40
2019-01-08T01:48:04.302Z,3.40
2019-01-08T01:52:48.819Z,3.30
2019-01-08T01:57:33.422Z,3.30
2019-01-08T02:02:19.303Z,3.30
2019-01-08T02:07:04.317Z,3.30
2019-01-08T02:11:48.911Z,3.20
2019-01-08T02:16:33.692Z,3.20
2019-01-08T02:21:19.530Z,3.30
2019-01-08T02:26:05.195Z,3.30
2019-01-08T02:30:51.872Z,3.30
2019-01-08T02:35:36.575Z,3.30
2019-01-08T02:40:21.722Z,3.30
2019-01-08T02:45:06.563Z,3.40
2019-01-08T02:49:51.376Z,3.30
2019-01-08T02:54:36.078Z,3.30
2019-01-08T02:59:25.232Z,3.30
2019-01-08T03:04:09.500Z,3.30
2019-01-08T03:08:54.393Z,3.30
2019-01-08T03:13:39.307Z,3.30
2019-01-08T03:18:24.027Z,3.30
2019-01-08T03:23:08.848Z,3.30
2019-01-08T03:27:53.568Z,3.20
2019-01-08T03:32:38.323Z,3.20
2019-01-08T03:37:27.396Z,3.10
2019-01-08T03:42:14.132Z,3.10
2019-01-08T03:46:58.884Z,3.10
2019-01-08T03:51:43.533Z,3.10
2019-01-08T03:56:28.150Z,3.20
2019-01-08T04:01:12.805Z,3.20
2019-01-08T04:05:57.374Z,3.30
2019-01-08T04:10:42.032Z,3.30
2019-01-08T04:15:26.677Z,3.30
2019-01-08T04:20:11.266Z,3.30
2019-01-08T04:24:59.130Z,3.30
2019-01-08T04:29:50.411Z,3.40
2019-01-08T04:34:29.971Z,3.50
2019-01-08T04:39:14.623Z,3.50
2019-01-08T04:43:59.281Z,3.50
2019-01-08T04:48:43.895Z,3.50
2019-01-08T04:53:28.483Z,3.50
2019-01-08T04:58:13.116Z,3.50
2019-01-08T05:02:57.856Z,3.40
2019-01-08T05:07:42.426Z,3.50
2019-01-08T05:12:27.153Z,3.40
2019-01-08T05:17:12.063Z,3.30
2019-01-08T05:21:56.710Z,3.20
2019-01-08T05:26:41.389Z,3.10
2019-01-08T05:31:25.883Z,3.10
2019-01-08T05:36:10.679Z,3.20
2019-01-08T05:40:55.255Z,3.30
2019-01-08T05:45:39.813Z,3.40
2019-01-08T05:50:24.624Z,3.50
2019-01-08T05:55:09.254Z,3.50
2019-01-08T05:59:54.126Z,3.50
2019-01-08T06:04:38.783Z,3.50
2019-01-08T06:09:23.567Z,3.50
2019-01-08T06:14:08.335Z,3.50
2019-01-08T06:18:53.051Z,3.50
2019-01-08T06:23:37.637Z,3.50
2019-01-08T06:28:22.226Z,3.50
2019-01-08T06:33:06.881Z,3.50
2019-01-08T06:37:51.592Z,3.50
2019-01-08T06:42:39.492Z,3.40
2019-01-08T06:47:24.152Z,3.40
2019-01-08T06:52:08.914Z,3.40
2019-01-08T06:56:53.653Z,3.30
2019-01-08T07:01:38.229Z,3.30
2019-01-08T07:06:23.061Z,3.30
2019-01-08T07:11:07.710Z,3.20
2019-01-08T07:15:52.397Z,3.20
2019-01-08T07:20:37.182Z,3.10
2019-01-08T07:25:21.857Z,3.10
2019-01-08T07:30:06.558Z,3.20
2019-01-08T07:34:51.205Z,3.30
2019-01-08T07:39:36.037Z,3.40
2019-01-08T07:44:20.664Z,3.50
2019-01-08T07:49:05.283Z,3.50
2019-01-08T07:53:49.943Z,3.70
2019-01-08T07:58:34.575Z,3.80
2019-01-08T08:03:19.211Z,3.90
2019-01-08T08:08:04.022Z,3.90
2019-01-08T08:12:48.687Z,4.00
2019-01-08T08:17:33.296Z,4.00
2019-01-08T08:22:17.890Z,4.10
2019-01-08T08:27:02.562Z,4.10
2019-01-08T08:31:47.213Z,4.10
2019-01-08T08:36:31.857Z,4.20
2019-01-08T08:41:16.678Z,4.20
2019-01-08T08:46:01.358Z,4.20
2019-01-08T08:50:46.140Z,4.10
2019-01-08T08:55:30.795Z,4.10
2019-01-08T09:00:15.390Z,4.00
2019-01-08T09:04:59.964Z,4.00
2019-01-08T09:09:45.246Z,4.00
2019-01-08T09:14:40.459Z,4.00
2019-01-08T09:19:25.120Z,4.00
2019-01-08T09:24:09.680Z,4.00
2019-01-08T09:28:54.409Z,3.80
2019-01-08T09:33:39.151Z,3.80
2019-01-08T09:38:23.878Z,3.80
2019-01-08T09:43:08.469Z,3.60
2019-01-08T09:47:53.115Z,3.50
2019-01-08T09:52:37.726Z,3.60
2019-01-08T09:57:22.363Z,3.60
2019-01-08T10:02:06.971Z,3.90
2019-01-08T10:06:51.555Z,4.00
2019-01-08T10:11:36.143Z,3.90
2019-01-08T10:16:20.733Z,3.80
2019-01-08T10:21:05.367Z,3.90
2019-01-08T10:25:50.068Z,4.00
2019-01-08T10:30:34.693Z,4.20
2019-01-08T10:35:19.433Z,4.30
2019-01-08T10:40:06.734Z,4.40
2019-01-08T10:44:51.358Z,4.30
2019-01-08T10:49:36.080Z,4.20
2019-01-08T10:54:20.821Z,4.10
2019-01-08T10:59:07.767Z,4.10
2019-01-08T11:03:51.831Z,4.00
2019-01-08T11:08:36.547Z,4.00
2019-01-08T11:13:21.370Z,4.10
2019-01-08T11:18:05.961Z,4.10
2019-01-08T11:22:50.674Z,4.20
2019-01-08T11:27:35.258Z,4.20
2019-01-08T11:32:19.858Z,4.30
2019-01-08T11:37:04.580Z,4.40
2019-01-08T11:41:49.192Z,4.50
2019-01-08T11:46:33.852Z,4.50
2019-01-08T11:51:18.422Z,4.50
2019-01-08T11:56:03.066Z,4.40
2019-01-08T12:00:49.403Z,4.30
2019-01-08T12:05:34.083Z,4.10
2019-01-08T12:10:20.764Z,3.90
2019-01-08T12:15:05.636Z,3.90
2019-01-08T12:19:50.581Z,3.90
2019-01-08T12:24:37.661Z,3.80
2019-01-08T12:29:22.308Z,3.90
2019-01-08T12:34:07.014Z,3.90
2019-01-08T12:38:51.686Z,3.90
2019-01-08T12:43:38.448Z,3.90
2019-01-08T12:48:23.062Z,3.80
2019-01-08T12:53:07.967Z,3.70
2019-01-08T12:57:54.474Z,3.60
2019-01-08T13:02:39.149Z,3.40
2019-01-08T13:07:23.835Z,3.30
2019-01-08T13:12:08.495Z,3.20
2019-01-08T13:16:53.247Z,3.10
2019-01-08T13:21:37.917Z,3.10
2019-01-08T13:26:22.545Z,3.00
2019-01-08T13:31:12.997Z,3.00
2019-01-08T13:36:00.308Z,3.00
2019-01-08T13:40:45.039Z,3.00
2019-01-08T13:45:29.731Z,3.10
2019-01-08T13:50:14.247Z,3.20
2019-01-08T13:55:01.065Z,3.20
2019-01-08T13:59:45.292Z,3.30
2019-01-08T14:04:29.845Z,3.40
2019-01-08T14:09:14.467Z,3.50
2019-01-08T14:13:59.044Z,3.70
2019-01-08T14:18:43.618Z,3.80
2019-01-08T14:23:28.207Z,3.90
2019-01-08T14:28:12.736Z,4.10
2019-01-08T14:32:57.294Z,4.10
2019-01-08T14:37:42.170Z,4.10
2019-01-08T14:42:26.853Z,4.20
2019-01-08T14:47:11.494Z,4.20
2019-01-08T14:51:56.180Z,4.20
2019-01-08T14:56:40.729Z,4.20
2019-01-08T15:01:25.292Z,4.10
2019-01-08T15:06:10.145Z,4.00
2019-01-08T15:10:57.751Z,4.00
2019-01-08T15:15:42.421Z,3.80
2019-01-08T15:20:27.238Z,3.70
2019-01-08T15:25:12.871Z,3.70
2019-01-08T15:29:57.643Z,3.70
2019-01-08T15:34:42.242Z,3.80
2019-01-08T15:39:26.937Z,3.90
2019-01-08T15:44:15.430Z,3.90
2019-01-08T15:48:57.981Z,4.00
2019-01-08T15:53:42.761Z,4.00
2019-01-08T15:58:27.457Z,4.00
2019-01-08T16:03:15.287Z,4.00
2019-01-08T16:07:59.992Z,4.00
2019-01-08T16:12:44.574Z,4.00
2019-01-08T16:17:29.360Z,4.00
2019-01-08T16:22:13.951Z,3.90
2019-01-08T16:27:00.224Z,3.90
2019-01-08T16:31:47.205Z,3.90
2019-01-08T16:36:31.831Z,3.90
2019-01-08T16:41:17.422Z,3.90
2019-01-08T16:46:02.068Z,3.90
2019-01-08T16:50:46.820Z,3.80
2019-01-08T16:55:31.527Z,3.80
2019-01-08T17:00:16.841Z,3.80
2019-01-08T17:05:01.620Z,3.70
2019-01-08T17:09:46.299Z,3.80
2019-01-08T17:14:33.236Z,3.70
2019-01-08T17:19:17.926Z,3.70
2019-01-08T17:24:02.655Z,3.60
2019-01-08T17:28:47.368Z,3.70
2019-01-08T17:33:33.920Z,3.70
2019-01-08T17:38:18.354Z,3.60
2019-01-08T17:43:03.055Z,3.50
2019-01-08T17:47:47.699Z,3.50
2019-01-08T17:52:36.495Z,3.50
2019-01-08T17:57:21.000Z,3.50
2019-01-08T18:02:16.286Z,3.50
2019-01-08T18:07:00.890Z,3.20
2019-01-08T18:11:45.541Z,3.00
2019-01-08T18:16:30.219Z,2.90
2019-01-08T18:21:14.807Z,2.70
2019-01-08T18:25:59.322Z,2.60
2019-01-08T18:30:43.893Z,2.60
2019-01-08T18:35:28.798Z,2.70
2019-01-08T18:40:13.357Z,2.70
2019-01-08T18:44:58.140Z,2.60
2019-01-08T18:49:43.122Z,2.50
2019-01-08T18:54:28.232Z,2.50
2019-01-08T18:59:12.986Z,2.40
2019-01-08T19:03:59.859Z,2.40
2019-01-08T19:09:24.560Z,2.50
2019-01-08T19:14:10.279Z,2.50
2019-01-08T19:18:54.764Z,2.50
2019-01-08T19:23:39.506Z,2.60
2019-01-08T19:28:26.239Z,2.60
2019-01-08T19:33:13.694Z,2.70
2019-01-08T19:37:58.304Z,2.70
2019-01-08T19:43:06.912Z,2.70
2019-01-08T19:47:51.620Z,2.50
2019-01-08T19:52:44.787Z,2.10
2019-01-08T19:57:50.120Z,1.80
2019-01-08T20:02:34.856Z,1.70
2019-01-08T20:07:20.610Z,1.70
2019-01-08T20:12:38.251Z,1.90
2019-01-08T20:17:37.164Z,1.70
2019-01-08T20:22:21.949Z,1.60
2019-01-08T20:27:06.617Z,1.40
2019-01-08T20:31:51.535Z,1.30
2019-01-08T20:36:36.966Z,1.20
2019-01-08T20:41:21.878Z,1.10
2019-01-08T20:46:07.684Z,1.00
2019-01-08T20:50:55.324Z,1.00
2019-01-08T20:55:41.332Z,1.00
2019-01-08T21:00:29.888Z,1.00
2019-01-08T21:05:39.843Z,1.00
2019-01-08T21:10:24.830Z,1.00
2019-01-08T21:15:39.791Z,1.10
2019-01-08T21:20:16.125Z,1.10
2019-01-08T21:25:05.430Z,1.10
2019-01-08T21:29:50.454Z,1.00
2019-01-08T21:34:43.965Z,1.00
2019-01-08T21:39:22.019Z,0.90
2019-01-08T21:44:20.528Z,0.90
2019-01-08T21:49:05.384Z,0.80
2019-01-08T21:53:50.362Z,0.70
2019-01-08T21:58:35.069Z,0.70
2019-01-08T22:03:20.030Z,0.60
2019-01-08T22:08:04.763Z,0.60
2019-01-08T22:12:49.660Z,0.60
2019-01-08T22:17:36.256Z,0.60
2019-01-08T22:22:20.946Z,0.60
2019-01-08T22:27:05.886Z,0.60
2019-01-08T22:31:51.047Z,0.60
2019-01-08T22:36:40.323Z,0.60
2019-01-08T22:41:25.800Z,0.60
2019-01-08T22:46:10.658Z,0.60
2019-01-08T22:50:58.214Z,0.50
2019-01-08T22:55:44.729Z,0.60
2019-01-08T23:01:00.391Z,0.60
2019-01-08T23:05:47.023Z,0.60
2019-01-08T23:10:32.889Z,0.60
2019-01-08T23:15:19.141Z,0.60
2019-01-08T23:20:05.565Z,0.60
2019-01-08T23:25:08.207Z,0.60
2019-01-08T23:30:00.029Z,0.60
2019-01-08T23:34:47.843Z,0.60
2019-01-08T23:39:43.005Z,0.60
2019-01-08T23:44:30.791Z,0.60
2019-01-08T23:49:21.113Z,0.60
2019-01-08T23:54:40.323Z,0.60
2019-01-08T23:59:44.351Z,0.60
